createdAt,value
2017-12-30T00:01:42.305Z,84.97
2017-12-30T00:04:09.903Z,85.44
2017-12-30T00:06:37.567Z,85.02
2017-12-30T00:09:05.302Z,84.94
2017-12-30T00:11:32.911Z,84.57
2017-12-30T00:14:00.632Z,84.78
2017-12-30T00:16:28.243Z,85.17
2017-12-30T00:18:55.866Z,85.08
2017-12-30T00:21:23.535Z,85.05
2017-12-30T00:23:51.138Z,83.78
2017-12-30T00:26:18.802Z,83.45
2017-12-30T00:28:46.410Z,84.13
2017-12-30T00:31:14.014Z,84.67
2017-12-30T00:33:41.621Z,84.65
2017-12-30T00:36:09.226Z,84.48
2017-12-30T00:38:36.943Z,84.81
2017-12-30T00:41:04.549Z,84.00
2017-12-30T00:43:32.215Z,84.08
2017-12-30T00:45:59.887Z,84.66
2017-12-30T00:48:27.547Z,84.15
2017-12-30T00:50:55.207Z,84.12
2017-12-30T00:53:22.809Z,84.47
2017-12-30T00:55:50.410Z,84.53
2017-12-30T00:58:18.081Z,84.84
2017-12-30T01:00:45.691Z,84.51
2017-12-30T01:03:13.419Z,84.25
2017-12-30T01:05:41.029Z,84.41
2017-12-30T01:08:08.697Z,84.53
2017-12-30T01:10:36.358Z,84.16
2017-12-30T01:13:03.969Z,83.63
2017-12-30T01:15:31.640Z,83.98
2017-12-30T01:17:59.242Z,84.63
2017-12-30T01:20:26.842Z,84.43
2017-12-30T01:22:54.459Z,83.26
2017-12-30T01:25:22.058Z,83.90
2017-12-30T01:27:49.726Z,83.69
2017-12-30T01:30:17.327Z,82.43
2017-12-30T01:32:44.926Z,82.12
2017-12-30T01:35:12.539Z,82.20
2017-12-30T01:37:40.139Z,81.70
2017-12-30T01:40:07.797Z,81.70
2017-12-30T01:42:35.402Z,81.64
2017-12-30T01:45:03.010Z,81.36
2017-12-30T01:47:30.621Z,81.73
2017-12-30T01:49:58.223Z,81.98
2017-12-30T01:52:25.891Z,81.86
2017-12-30T01:54:53.506Z,81.20
2017-12-30T01:57:21.114Z,80.71
2017-12-30T01:59:48.787Z,79.76
2017-12-30T02:02:16.389Z,80.12
2017-12-30T02:04:44.111Z,80.09
2017-12-30T02:07:11.718Z,80.45
2017-12-30T02:09:39.379Z,78.54
2017-12-30T02:12:06.994Z,79.20
2017-12-30T02:14:34.599Z,78.02
2017-12-30T02:17:02.316Z,78.75
2017-12-30T02:19:29.922Z,78.97
2017-12-30T02:21:57.534Z,78.73
2017-12-30T02:24:25.143Z,78.71
2017-12-30T02:26:52.808Z,78.51
2017-12-30T02:29:20.463Z,77.18
2017-12-30T02:31:48.127Z,77.22
2017-12-30T02:34:15.737Z,75.78
2017-12-30T02:36:43.399Z,75.76
2017-12-30T02:39:11.046Z,75.82
2017-12-30T02:41:38.763Z,76.57
2017-12-30T02:44:06.359Z,76.90
2017-12-30T02:46:33.958Z,76.84
2017-12-30T02:49:01.574Z,76.35
2017-12-30T02:51:29.176Z,76.32
2017-12-30T02:53:56.886Z,75.89
2017-12-30T02:56:24.543Z,75.40
2017-12-30T02:58:52.203Z,75.59
2017-12-30T03:01:19.813Z,75.70
2017-12-30T03:03:47.415Z,75.11
2017-12-30T03:06:15.130Z,74.77
2017-12-30T03:08:42.740Z,74.42
2017-12-30T03:11:10.342Z,74.42
2017-12-30T03:13:38.003Z,74.30
2017-12-30T03:16:05.662Z,73.91
2017-12-30T03:18:33.326Z,73.99
2017-12-30T03:21:00.991Z,73.60
2017-12-30T03:23:28.659Z,73.67
2017-12-30T03:25:56.332Z,73.79
2017-12-30T03:28:23.927Z,73.14
2017-12-30T03:30:51.588Z,73.29
2017-12-30T03:33:19.258Z,73.76
2017-12-30T03:35:46.854Z,74.27
2017-12-30T03:38:14.526Z,75.09
2017-12-30T03:40:42.126Z,75.84
2017-12-30T03:43:09.859Z,76.48
2017-12-30T03:45:37.518Z,76.89
2017-12-30T03:48:05.122Z,76.56
2017-12-30T03:50:32.739Z,76.97
2017-12-30T03:53:00.412Z,75.58
2017-12-30T03:55:28.070Z,76.73
2017-12-30T03:57:55.773Z,76.36
2017-12-30T04:00:23.375Z,75.97
2017-12-30T04:02:51.050Z,76.02
2017-12-30T04:05:18.657Z,76.44
2017-12-30T04:07:46.362Z,75.51
2017-12-30T04:10:13.973Z,75.55
2017-12-30T04:12:41.606Z,75.09
2017-12-30T04:15:09.279Z,74.97
2017-12-30T04:17:36.879Z,73.26
2017-12-30T04:20:04.531Z,73.31
2017-12-30T04:22:32.191Z,73.53
2017-12-30T04:24:59.786Z,74.08
2017-12-30T04:27:27.397Z,74.59
2017-12-30T04:29:55.010Z,74.26
2017-12-30T04:32:22.662Z,73.99
2017-12-30T04:34:50.326Z,73.51
2017-12-30T04:37:17.994Z,74.14
2017-12-30T04:39:45.658Z,74.13
2017-12-30T04:42:13.322Z,74.03
2017-12-30T04:44:40.984Z,74.05
2017-12-30T04:47:08.587Z,73.46
2017-12-30T04:49:36.186Z,74.12
2017-12-30T04:52:03.799Z,74.21
2017-12-30T04:54:31.398Z,73.90
2017-12-30T04:56:59.067Z,74.26
2017-12-30T04:59:26.674Z,74.87
2017-12-30T05:01:54.285Z,74.29
2017-12-30T05:04:21.895Z,74.78
2017-12-30T05:06:49.506Z,74.77
2017-12-30T05:09:17.230Z,74.82
2017-12-30T05:11:44.890Z,75.04
2017-12-30T05:14:12.499Z,74.94
2017-12-30T05:16:40.107Z,74.65
2017-12-30T05:19:07.710Z,74.33
2017-12-30T05:21:35.546Z,72.93
2017-12-30T05:24:03.145Z,72.63
2017-12-30T05:26:30.862Z,73.19
2017-12-30T05:28:58.538Z,72.78
2017-12-30T05:31:26.151Z,72.70
2017-12-30T05:33:53.815Z,73.15
2017-12-30T05:36:21.483Z,74.13
2017-12-30T05:38:49.082Z,73.74
2017-12-30T05:41:16.689Z,74.18
2017-12-30T05:43:44.291Z,74.46
2017-12-30T05:46:11.942Z,74.47
2017-12-30T05:48:39.604Z,74.64
2017-12-30T05:51:07.219Z,73.43
2017-12-30T05:53:34.842Z,73.87
2017-12-30T05:56:02.502Z,74.41
2017-12-30T05:58:30.222Z,73.69
2017-12-30T06:00:57.839Z,73.60
2017-12-30T06:03:25.448Z,73.90
2017-12-30T06:05:53.124Z,73.22
2017-12-30T06:08:20.722Z,73.14
2017-12-30T06:10:48.383Z,73.71
2017-12-30T06:13:16.047Z,74.84
2017-12-30T06:15:43.658Z,73.54
2017-12-30T06:18:11.274Z,73.57
2017-12-30T06:20:38.873Z,73.72
2017-12-30T06:23:06.534Z,73.74
2017-12-30T06:25:34.145Z,74.15
2017-12-30T06:28:01.743Z,74.25
2017-12-30T06:30:29.346Z,74.36
2017-12-30T06:32:57.003Z,74.29
2017-12-30T06:35:24.659Z,74.22
2017-12-30T06:37:52.314Z,73.54
2017-12-30T06:40:19.914Z,72.98
2017-12-30T06:42:47.579Z,73.44
2017-12-30T06:45:15.248Z,71.97
2017-12-30T06:47:42.964Z,71.82
2017-12-30T06:50:10.628Z,72.17
2017-12-30T06:52:38.230Z,71.12
2017-12-30T06:55:05.850Z,70.89
2017-12-30T06:57:33.523Z,70.64
2017-12-30T07:00:01.200Z,70.18
2017-12-30T07:02:28.864Z,69.78
2017-12-30T07:04:56.471Z,68.12
2017-12-30T07:07:24.078Z,68.02
2017-12-30T07:09:51.691Z,69.69
2017-12-30T07:12:19.366Z,67.69
2017-12-30T07:14:47.040Z,67.64
2017-12-30T07:17:14.652Z,69.03
2017-12-30T07:19:42.319Z,69.20
2017-12-30T07:22:09.934Z,68.22
2017-12-30T07:24:37.599Z,68.57
2017-12-30T07:27:05.258Z,68.21
2017-12-30T07:29:32.868Z,67.51
2017-12-30T07:32:00.476Z,67.00
2017-12-30T07:34:28.089Z,67.13
2017-12-30T07:36:55.757Z,67.74
2017-12-30T07:39:23.423Z,67.80
2017-12-30T07:41:51.031Z,66.34
2017-12-30T07:44:18.699Z,66.26
2017-12-30T07:46:46.303Z,65.94
2017-12-30T07:49:13.963Z,66.58
2017-12-30T07:51:41.567Z,66.72
2017-12-30T07:54:09.228Z,66.97
2017-12-30T07:56:36.907Z,64.98
2017-12-30T07:59:04.575Z,65.14
2017-12-30T08:01:32.234Z,65.98
2017-12-30T08:03:59.903Z,65.38
2017-12-30T08:06:27.506Z,65.49
2017-12-30T08:08:55.170Z,66.04
2017-12-30T08:11:22.836Z,64.05
2017-12-30T08:13:50.559Z,64.71
2017-12-30T08:16:18.158Z,64.66
2017-12-30T08:18:45.762Z,64.38
2017-12-30T08:21:13.434Z,64.53
2017-12-30T08:23:41.030Z,63.40
2017-12-30T08:26:08.747Z,63.18
2017-12-30T08:28:36.439Z,64.90
2017-12-30T08:31:04.121Z,62.54
2017-12-30T08:33:31.738Z,62.54
2017-12-30T08:35:59.351Z,63.13
2017-12-30T08:38:27.011Z,63.25
2017-12-30T08:40:54.615Z,63.04
2017-12-30T08:43:22.228Z,61.86
2017-12-30T08:45:49.831Z,62.22
2017-12-30T08:48:17.425Z,63.16
2017-12-30T08:50:45.094Z,62.47
2017-12-30T08:53:12.695Z,63.52
2017-12-30T08:55:40.302Z,63.00
2017-12-30T08:58:07.910Z,62.19
2017-12-30T09:00:35.574Z,62.72
2017-12-30T09:03:03.291Z,63.45
2017-12-30T09:05:30.960Z,63.28
2017-12-30T09:07:58.555Z,63.74
2017-12-30T09:10:26.166Z,62.58
2017-12-30T09:12:53.837Z,62.04
2017-12-30T09:15:21.555Z,61.71
2017-12-30T09:17:49.225Z,61.63
2017-12-30T09:20:16.827Z,61.89
2017-12-30T09:22:44.430Z,62.47
2017-12-30T09:25:12.026Z,61.83
2017-12-30T09:27:39.698Z,60.72
2017-12-30T09:30:07.371Z,61.19
2017-12-30T09:32:35.035Z,60.22
2017-12-30T09:35:02.643Z,60.27
2017-12-30T09:37:30.296Z,60.60
2017-12-30T09:39:57.959Z,60.18
2017-12-30T09:42:25.635Z,61.23
2017-12-30T09:44:53.295Z,59.63
2017-12-30T09:47:20.902Z,60.97
2017-12-30T09:49:48.571Z,59.90
2017-12-30T09:52:16.233Z,60.98
2017-12-30T09:54:43.839Z,61.06
2017-12-30T09:57:11.504Z,60.61
2017-12-30T09:59:39.154Z,61.33
2017-12-30T10:02:06.746Z,60.68
2017-12-30T10:04:34.410Z,60.38
2017-12-30T10:07:02.019Z,60.97
2017-12-30T10:09:29.622Z,58.70
2017-12-30T10:11:57.299Z,59.75
2017-12-30T10:14:24.906Z,58.84
2017-12-30T10:16:52.623Z,58.39
2017-12-30T10:19:20.273Z,59.33
2017-12-30T10:21:47.934Z,58.38
2017-12-30T10:24:15.547Z,59.88
2017-12-30T10:26:43.150Z,59.78
2017-12-30T10:29:10.873Z,60.10
2017-12-30T10:31:38.477Z,60.22
2017-12-30T10:34:06.073Z,61.68
2017-12-30T10:36:33.750Z,60.88
2017-12-30T10:39:01.356Z,60.85
2017-12-30T10:41:29.074Z,60.91
2017-12-30T10:43:56.678Z,60.44
2017-12-30T10:46:24.292Z,60.75
2017-12-30T10:48:51.913Z,61.60
2017-12-30T10:51:19.515Z,61.53
2017-12-30T10:53:47.172Z,61.09
2017-12-30T10:56:14.835Z,61.02
2017-12-30T10:58:42.430Z,60.71
2017-12-30T11:01:10.097Z,61.25
2017-12-30T11:03:37.702Z,61.60
2017-12-30T11:06:05.355Z,62.43
2017-12-30T11:08:32.961Z,62.24
2017-12-30T11:11:00.590Z,61.18
2017-12-30T11:13:28.197Z,61.75
2017-12-30T11:15:55.799Z,62.63
2017-12-30T11:18:23.535Z,62.23
2017-12-30T11:20:51.154Z,61.29
2017-12-30T11:23:18.754Z,61.20
2017-12-30T11:25:46.379Z,61.65
2017-12-30T11:28:13.986Z,60.43
2017-12-30T11:30:41.698Z,61.41
2017-12-30T11:33:09.370Z,60.23
2017-12-30T11:35:37.136Z,61.78
2017-12-30T11:38:04.743Z,61.10
2017-12-30T11:40:32.353Z,60.13
2017-12-30T11:43:00.007Z,60.46
2017-12-30T11:45:27.624Z,60.32
2017-12-30T11:47:55.225Z,60.97
2017-12-30T11:50:22.830Z,60.53
2017-12-30T11:52:50.496Z,60.26
2017-12-30T11:55:18.154Z,59.69
2017-12-30T11:57:45.815Z,61.06
2017-12-30T12:00:13.474Z,61.98
2017-12-30T12:02:41.087Z,61.33
2017-12-30T12:05:08.694Z,60.72
2017-12-30T12:07:36.361Z,61.81
2017-12-30T12:10:04.053Z,61.59
2017-12-30T12:12:31.663Z,61.53
2017-12-30T12:14:59.362Z,60.97
2017-12-30T12:17:26.967Z,60.88
2017-12-30T12:19:54.659Z,60.93
2017-12-30T12:22:22.334Z,61.39
2017-12-30T12:24:50.008Z,61.13
2017-12-30T12:27:17.620Z,61.21
2017-12-30T12:29:45.229Z,60.40
2017-12-30T12:32:12.956Z,61.42
2017-12-30T12:34:40.566Z,60.75
2017-12-30T12:37:08.226Z,60.20
2017-12-30T12:39:35.838Z,60.54
2017-12-30T12:42:03.503Z,61.59
2017-12-30T12:44:31.229Z,60.91
2017-12-30T12:46:58.895Z,61.16
2017-12-30T12:49:26.503Z,61.78
2017-12-30T12:51:54.120Z,61.38
2017-12-30T12:54:21.750Z,61.94
2017-12-30T12:56:49.469Z,63.01
2017-12-30T12:59:17.079Z,61.91
2017-12-30T13:01:44.743Z,62.51
2017-12-30T13:04:12.366Z,62.34
2017-12-30T13:06:40.037Z,62.96
2017-12-30T13:09:07.759Z,62.62
2017-12-30T13:11:35.415Z,63.18
2017-12-30T13:14:03.079Z,63.46
2017-12-30T13:16:30.754Z,62.90
2017-12-30T13:18:58.358Z,63.08
2017-12-30T13:24:07.978Z,64.17
2017-12-30T13:26:35.647Z,64.39
2017-12-30T13:29:03.251Z,64.15
2017-12-30T13:31:30.858Z,65.13
2017-12-30T13:33:58.479Z,64.42
2017-12-30T13:36:26.148Z,63.84
2017-12-30T13:38:53.821Z,64.26
2017-12-30T13:41:21.482Z,64.62
2017-12-30T13:43:49.074Z,64.24
2017-12-30T13:46:16.767Z,64.96
2017-12-30T13:48:44.433Z,65.57
2017-12-30T13:51:12.106Z,65.33
2017-12-30T13:53:39.783Z,65.59
2017-12-30T13:56:07.393Z,65.75
2017-12-30T13:58:35.010Z,66.45
2017-12-30T14:01:02.618Z,66.11
2017-12-30T14:03:30.300Z,65.56
2017-12-30T14:05:57.908Z,66.54
2017-12-30T14:08:25.514Z,66.23
2017-12-30T14:10:53.122Z,66.12
2017-12-30T14:13:20.727Z,66.16
2017-12-30T14:15:48.390Z,66.66
2017-12-30T14:18:15.998Z,67.22
2017-12-30T14:20:43.615Z,66.60
2017-12-30T14:23:11.238Z,66.44
2017-12-30T14:25:38.907Z,67.78
2017-12-30T14:28:06.580Z,68.83
2017-12-30T14:30:34.186Z,69.65
2017-12-30T14:33:01.859Z,69.84
2017-12-30T14:35:29.468Z,69.70
2017-12-30T14:37:57.075Z,70.07
2017-12-30T14:40:24.737Z,70.28
2017-12-30T14:42:52.351Z,70.80
2017-12-30T14:45:19.950Z,71.05
2017-12-30T14:47:47.614Z,71.14
2017-12-30T14:50:15.238Z,71.33
2017-12-30T14:52:42.924Z,71.02
2017-12-30T14:55:10.531Z,71.01
2017-12-30T14:57:38.134Z,71.19
2017-12-30T15:00:05.811Z,70.99
2017-12-30T15:02:33.414Z,71.03
2017-12-30T15:05:01.077Z,71.25
2017-12-30T15:07:28.737Z,71.53
2017-12-30T15:09:56.404Z,71.71
2017-12-30T15:12:24.075Z,72.02
2017-12-30T15:14:51.679Z,72.10
2017-12-30T15:17:19.397Z,72.47
2017-12-30T15:19:46.995Z,71.93
2017-12-30T15:22:14.659Z,71.75
2017-12-30T15:24:42.339Z,71.98
2017-12-30T15:27:09.950Z,72.16
2017-12-30T15:29:37.622Z,71.53
2017-12-30T15:32:22.583Z,71.92
2017-12-30T15:34:50.267Z,71.91
2017-12-30T15:37:17.935Z,72.30
2017-12-30T15:39:45.545Z,72.71
2017-12-30T15:42:13.219Z,73.25
2017-12-30T15:44:40.822Z,73.58
2017-12-30T15:47:08.537Z,73.79
2017-12-30T15:49:36.130Z,74.25
2017-12-30T15:52:03.811Z,74.74
2017-12-30T15:54:31.436Z,74.84
2017-12-30T15:56:59.043Z,74.83
2017-12-30T15:59:26.754Z,74.97
2017-12-30T16:01:54.374Z,75.36
2017-12-30T16:04:21.983Z,76.21
2017-12-30T16:06:49.607Z,76.63
2017-12-30T16:09:17.289Z,77.42
2017-12-30T16:11:45.012Z,77.96
2017-12-30T16:14:12.624Z,78.07
2017-12-30T16:16:40.226Z,78.33
2017-12-30T16:19:07.853Z,78.59
2017-12-30T16:21:35.479Z,78.69
2017-12-30T16:24:03.130Z,78.73
2017-12-30T16:26:30.744Z,78.67
2017-12-30T16:28:58.346Z,78.84
2017-12-30T16:31:25.973Z,78.99
2017-12-30T16:33:53.646Z,79.22
2017-12-30T16:36:21.334Z,79.44
2017-12-30T16:38:49.005Z,79.53
2017-12-30T16:41:16.663Z,79.70
2017-12-30T16:43:44.283Z,80.10
2017-12-30T16:46:11.897Z,80.02
2017-12-30T16:48:39.633Z,80.01
2017-12-30T16:51:07.260Z,79.99
2017-12-30T16:53:34.885Z,79.96
2017-12-30T16:56:02.562Z,79.98
2017-12-30T16:58:30.222Z,80.09
2017-12-30T17:00:57.888Z,80.11
2017-12-30T17:03:25.495Z,80.18
2017-12-30T17:05:53.124Z,80.25
2017-12-30T17:08:21.478Z,80.25
2017-12-30T17:10:49.089Z,80.27
2017-12-30T17:13:16.757Z,80.53
2017-12-30T17:15:44.385Z,80.75
2017-12-30T17:18:12.006Z,80.80
2017-12-30T17:20:39.626Z,81.01
2017-12-30T17:23:08.404Z,81.22
2017-12-30T17:25:36.088Z,81.36
2017-12-30T17:28:03.761Z,81.52
2017-12-30T17:30:31.440Z,81.62
2017-12-30T17:32:59.125Z,81.79
2017-12-30T17:35:26.742Z,81.88
2017-12-30T17:37:54.471Z,82.00
2017-12-30T17:40:22.106Z,81.84
2017-12-30T17:42:49.775Z,81.99
2017-12-30T17:45:17.399Z,81.88
2017-12-30T17:47:45.032Z,82.03
2017-12-30T17:50:12.702Z,82.21
2017-12-30T17:52:40.335Z,82.43
2017-12-30T17:55:08.019Z,82.53
2017-12-30T17:57:35.649Z,82.50
2017-12-30T18:00:03.335Z,82.51
2017-12-30T18:02:30.998Z,82.51
2017-12-30T18:04:58.677Z,82.35
2017-12-30T18:07:26.320Z,82.22
2017-12-30T18:12:27.066Z,82.25
2017-12-30T18:14:54.679Z,82.13
2017-12-30T18:17:22.367Z,82.15
2017-12-30T18:19:49.979Z,81.99
2017-12-30T18:22:17.590Z,81.77
2017-12-30T18:24:45.214Z,81.54
2017-12-30T18:27:12.833Z,81.30
2017-12-30T18:29:40.500Z,80.84
2017-12-30T18:32:08.111Z,80.45
2017-12-30T18:34:35.794Z,79.99
2017-12-30T18:37:03.439Z,79.76
2017-12-30T18:39:31.042Z,79.36
2017-12-30T18:41:59.858Z,79.07
2017-12-30T18:44:27.531Z,78.97
2017-12-30T18:46:55.276Z,78.34
2017-12-30T18:49:22.891Z,78.30
2017-12-30T18:51:50.505Z,78.20
2017-12-30T18:54:18.275Z,77.69
2017-12-30T18:56:45.895Z,76.70
2017-12-30T18:59:13.506Z,76.10
2017-12-30T19:01:41.126Z,75.40
2017-12-30T19:04:08.787Z,74.43
2017-12-30T19:06:36.458Z,73.80
2017-12-30T19:09:04.231Z,72.21
2017-12-30T19:11:31.902Z,72.04
2017-12-30T19:13:59.523Z,71.00
2017-12-30T19:16:27.156Z,69.79
2017-12-30T19:18:54.826Z,69.38
2017-12-30T19:21:22.430Z,68.80
2017-12-30T19:23:50.029Z,69.29
2017-12-30T19:26:17.668Z,68.08
2017-12-30T19:28:45.283Z,67.60
2017-12-30T19:31:12.938Z,67.27
2017-12-30T19:33:40.533Z,66.87
2017-12-30T19:36:08.142Z,66.86
2017-12-30T19:38:35.825Z,66.75
2017-12-30T19:41:03.423Z,66.37
2017-12-30T19:43:31.078Z,67.05
2017-12-30T19:45:58.746Z,67.79
2017-12-30T19:48:26.417Z,67.97
2017-12-30T19:50:54.035Z,68.01
2017-12-30T19:53:21.634Z,68.54
2017-12-30T19:55:49.359Z,68.55
2017-12-30T19:58:17.946Z,68.55
2017-12-30T20:00:45.610Z,68.66
2017-12-30T20:03:13.292Z,68.40
2017-12-30T20:05:41.856Z,68.53
2017-12-30T20:08:09.570Z,68.85
2017-12-30T20:10:37.236Z,68.62
2017-12-30T20:13:05.570Z,69.12
2017-12-30T20:15:33.251Z,69.94
2017-12-30T20:18:00.854Z,69.38
2017-12-30T20:20:28.518Z,69.39
2017-12-30T20:22:56.127Z,69.22
2017-12-30T20:25:23.798Z,69.46
2017-12-30T20:27:51.422Z,69.65
2017-12-30T20:30:19.026Z,70.01
2017-12-30T20:32:46.690Z,70.42
2017-12-30T20:35:14.308Z,70.89
2017-12-30T20:37:41.922Z,71.12
2017-12-30T20:40:09.546Z,71.28
2017-12-30T20:42:37.145Z,71.22
2017-12-30T20:45:04.805Z,72.03
2017-12-30T20:47:32.425Z,71.49
2017-12-30T20:50:00.026Z,72.26
2017-12-30T20:52:27.718Z,72.16
2017-12-30T20:54:55.399Z,72.27
2017-12-30T20:57:23.130Z,72.29
2017-12-30T20:59:50.766Z,72.36
2017-12-30T21:02:18.383Z,72.74
2017-12-30T21:04:46.076Z,73.19
2017-12-30T21:07:13.701Z,73.07
2017-12-30T21:09:41.367Z,71.86
2017-12-30T21:12:09.044Z,72.15
2017-12-30T21:14:36.716Z,72.17
2017-12-30T21:17:04.347Z,71.74
2017-12-30T21:19:31.985Z,71.32
2017-12-30T21:21:59.733Z,70.44
2017-12-30T21:24:27.356Z,69.21
2017-12-30T21:26:54.974Z,68.79
2017-12-30T21:29:22.595Z,68.38
2017-12-30T21:31:50.222Z,67.15
2017-12-30T21:34:17.938Z,66.64
2017-12-30T21:36:45.550Z,66.82
2017-12-30T21:39:13.219Z,67.27
2017-12-30T21:41:40.904Z,66.36
2017-12-30T21:44:08.579Z,64.57
2017-12-30T21:46:36.346Z,65.41
2017-12-30T21:49:03.951Z,66.06
2017-12-30T21:51:31.619Z,65.92
2017-12-30T21:54:00.164Z,66.47
2017-12-30T21:56:27.780Z,65.91
2017-12-30T21:58:55.442Z,66.28
2017-12-30T22:01:23.047Z,66.04
2017-12-30T22:03:50.647Z,64.96
2017-12-30T22:06:18.325Z,65.49
2017-12-30T22:08:45.939Z,66.33
2017-12-30T22:11:13.604Z,67.11
2017-12-30T22:13:41.222Z,69.14
2017-12-30T22:16:08.903Z,70.86
2017-12-30T22:18:36.518Z,71.64
2017-12-30T22:21:04.127Z,72.15
2017-12-30T22:23:31.792Z,72.90
2017-12-30T22:25:59.463Z,71.79
2017-12-30T22:28:27.130Z,71.23
2017-12-30T22:30:54.810Z,69.89
2017-12-30T22:33:22.478Z,67.40
2017-12-30T22:35:50.142Z,66.49
2017-12-30T22:38:17.805Z,64.50
2017-12-30T22:40:45.414Z,64.26
2017-12-30T22:43:13.029Z,63.84
2017-12-30T22:45:40.635Z,63.80
2017-12-30T22:48:08.372Z,63.64
2017-12-30T22:50:35.985Z,63.10
2017-12-30T22:53:03.586Z,62.83
2017-12-30T22:55:31.195Z,63.35
2017-12-30T22:57:58.858Z,63.72
2017-12-30T23:00:39.449Z,63.73
2017-12-30T23:03:07.054Z,63.16
2017-12-30T23:05:34.661Z,63.72
2017-12-30T23:08:02.275Z,63.72
2017-12-30T23:10:29.878Z,63.25
2017-12-30T23:12:57.551Z,64.68
2017-12-30T23:15:25.183Z,64.34
2017-12-30T23:17:52.790Z,63.89
2017-12-30T23:20:20.407Z,64.25
2017-12-30T23:22:48.014Z,64.85
2017-12-30T23:25:15.675Z,65.22
2017-12-30T23:27:43.279Z,65.76
2017-12-30T23:30:10.878Z,65.15
2017-12-30T23:32:38.481Z,66.40
2017-12-30T23:35:06.110Z,65.72
2017-12-30T23:37:33.775Z,65.84
2017-12-30T23:40:01.378Z,65.92
2017-12-30T23:42:28.983Z,66.46
2017-12-30T23:44:56.658Z,66.20
2017-12-30T23:47:24.319Z,66.57
2017-12-30T23:49:51.979Z,67.22
2017-12-30T23:52:19.644Z,67.58
2017-12-30T23:54:47.307Z,67.45
2017-12-30T23:57:14.974Z,66.37
2017-12-30T23:59:42.630Z,66.61
